الصفحة الرئيسية
METAR-TAF:

METAR-TAF

مطار :

فوكيت, تايلاند

دائرة عرض: 08-07N, خط طول: 098-19E, ارتفاع: 6 متر

مراقبة الطقس الحالي

تاريخ ووقت الإصدار 26 دقيقة قبل الساعة 07:30UTC
ريح 11 عقدة من الغرب
درجة الحرارة 31°درجة مئوية
الرطوبة 71%
ضغط 1007 hPa
الرؤية 10 كم أو أكثر
غيوم قليلة على ارتفاع 2000 قدم

METAR: VTSP 310730Z 28011KT 9999 FEW020 31/25 Q1007 NOSIG

زمن: 14:56 (07:56 UTC)

توقعات

تاريخ ووقت الإصدار 2ساعات و 56 دقيقة قبل الساعة 05:00UTC
التوقعات صالحة من31 الساعة 06 UTC إلى 01 الساعة 12 UTC
ريح 9 عقدة من الغرب/الشمال الغربي
الرؤية 10 كم أو أكثر
غيوم قليلة على ارتفاع 2000 قدم
أصبح
من 31 الساعة 18 UTC إلى 31 الساعة 20 UTC
ريح عقدة من الشمال
أصبح
من 31 الساعة 22 UTC إلى 31 الساعة 24 UTC
ريح 6 عقدة من الشرق
أصبح
من 01 الساعة 02 UTC إلى 01 الساعة 04 UTC
ريح 8 عقدة من الغرب/الشمال الغربي

TAF: VTSP 310500Z 3106/0112 30009KT 9999 FEW020 BECMG 3118/3120 00000KT BECMG 3122/3124 08006KT BECMG 0102/0104 30008KT

أرصاد الطقس والتوقعات من أكثر من 4000 مطار (تقارير الطقس للمطار METAR والتنبؤ بالطقس بالمطارTAF).

المحطات المتاحة هي النقط الصفراء والحمراء على الخريطة.

حرك المؤشر فوق النقطة لمعرفة اسم المحطة.

ثم انقر لمعرفة أرصاد وتوقعات الطقس.

لتغيير الخارطة: اضغط على الأزرار الخضراء مع رمز الصليب الأسود للتكبير. على الزر الأخضر مع شرطة للتصغير، أو على الأسهم الخضراء للخرائط المجاورة.


METAR-TAF: